Time;durP1;ratioP1;P1;durP2;ratioP2;P2;SDS_P1;SDS_P2;PMS_P1;PMS_P2;Temp;Humidity;BMP_temperature;BMP_pressure;BME280_temperature;BME280_humidity;BME280_pressure;Samples;Min_cycle;Max_cycle;Signal;HPM_P1;HPM_P2
2021/04/01 00:03:04;;;;;;;25.90;14.98;;;12.20;99.90;;;;;;12364715;28;20058;-42
2021/04/01 00:09:06;;;;;;;26.10;14.90;;;12.20;99.90;;;;;;12366022;28;20055;-44
2021/04/01 00:15:10;;;;;;;25.73;14.77;;;12.40;99.90;;;;;;12361047;28;20055;-42
2021/04/01 00:21:11;;;;;;;28.97;15.37;;;12.60;99.90;;;;;;12368513;28;20052;-42
2021/04/01 00:27:13;;;;;;;23.40;14.40;;;12.80;99.90;;;;;;12360667;28;20077;-42
2021/04/01 00:33:14;;;;;;;26.88;15.25;;;12.80;99.90;;;;;;12350887;28;20085;-41
2021/04/01 00:39:15;;;;;;;27.92;15.02;;;13.00;99.90;;;;;;12358369;28;20061;-42
2021/04/01 00:45:17;;;;;;;27.52;15.15;;;12.80;99.90;;;;;;12363207;28;20410;-42
2021/04/01 00:51:18;;;;;;;30.90;16.65;;;12.80;99.90;;;;;;12356063;28;20045;-42
2021/04/01 00:57:20;;;;;;;26.70;14.90;;;12.60;99.90;;;;;;12357736;28;21040;-42
2021/04/01 01:03:21;;;;;;;28.77;15.68;;;12.40;99.90;;;;;;12356885;28;20050;-42
2021/04/01 01:09:23;;;;;;;27.48;17.02;;;12.20;99.90;;;;;;12366395;28;20137;-42
2021/04/01 01:15:25;;;;;;;27.70;17.42;;;11.60;99.90;;;;;;12360961;28;20054;-41
2021/04/01 01:21:27;;;;;;;27.23;16.85;;;11.40;99.90;;;;;;12357495;28;20089;-42
2021/04/01 01:27:28;;;;;;;27.05;18.17;;;11.40;99.90;;;;;;12357615;28;20049;-43
2021/04/01 01:33:39;;;;;;;28.42;17.33;;;11.50;99.90;;;;;;12356610;28;20059;-42
2021/04/01 01:39:41;;;;;;;29.63;18.08;;;11.30;99.90;;;;;;12356198;28;20058;-42
2021/04/01 01:45:43;;;;;;;31.15;18.02;;;11.00;99.90;;;;;;12351915;28;20073;-42
2021/04/01 01:51:45;;;;;;;28.90;18.13;;;11.30;99.90;;;;;;12347656;28;20054;-42
2021/04/01 01:57:46;;;;;;;30.52;17.58;;;11.30;99.90;;;;;;12358459;28;20073;-43
2021/04/01 02:03:48;;;;;;;32.33;17.73;;;11.60;99.90;;;;;;12356271;28;20632;-42
2021/04/01 02:09:49;;;;;;;31.70;17.25;;;12.30;99.90;;;;;;12346141;28;20237;-44
2021/04/01 02:15:55;;;;;;;30.50;15.73;;;12.90;99.90;;;;;;12345593;28;20081;-43
2021/04/01 02:21:56;;;;;;;26.70;15.75;;;13.10;99.90;;;;;;12342808;28;20168;-42
2021/04/01 02:27:58;;;;;;;32.13;16.48;;;13.00;99.90;;;;;;12351385;28;20060;-43
2021/04/01 02:34:02;;;;;;;29.00;16.13;;;13.10;99.90;;;;;;12360907;28;20861;-43
2021/04/01 02:40:04;;;;;;;31.67;16.05;;;13.00;99.90;;;;;;12352334;28;20058;-41
2021/04/01 02:46:07;;;;;;;36.45;18.23;;;13.20;99.90;;;;;;12359364;28;20835;-42
2021/04/01 02:52:09;;;;;;;33.50;17.88;;;13.40;99.90;;;;;;12355646;28;20062;-42
2021/04/01 02:58:10;;;;;;;36.92;17.83;;;13.30;99.90;;;;;;12350223;28;20061;-41
2021/04/01 03:04:12;;;;;;;33.40;17.85;;;13.40;99.90;;;;;;12351311;28;20129;-44
2021/04/01 03:10:13;;;;;;;33.53;18.00;;;13.30;99.90;;;;;;12348922;28;20145;-43
2021/04/01 03:16:15;;;;;;;33.10;18.40;;;13.30;99.90;;;;;;12366366;28;20145;-42
2021/04/01 03:22:16;;;;;;;31.80;17.55;;;13.40;99.90;;;;;;12361832;28;20452;-43
2021/04/01 03:28:18;;;;;;;29.65;17.45;;;13.50;99.90;;;;;;12361749;28;20069;-42
2021/04/01 03:34:19;;;;;;;26.00;16.25;;;13.30;99.90;;;;;;12361461;28;20146;-42
2021/04/01 03:40:21;;;;;;;26.50;16.23;;;13.20;99.90;;;;;;12359159;28;20519;-42
2021/04/01 03:46:23;;;;;;;34.40;17.48;;;12.30;99.90;;;;;;12360332;28;20050;-42
2021/04/01 03:52:24;;;;;;;37.88;19.45;;;12.10;99.90;;;;;;12354389;28;20804;-41
2021/04/01 04:05:11;;;;;;;35.60;20.58;;;12.70;99.90;;;;;;12356946;28;20470;-42
2021/04/01 04:17:26;;;;;;;39.63;22.05;;;13.10;99.90;;;;;;12363255;28;20155;-42
2021/04/01 04:23:27;;;;;;;41.30;22.35;;;13.20;99.90;;;;;;12355509;28;20145;-43
2021/04/01 04:29:30;;;;;;;43.28;23.13;;;13.00;99.90;;;;;;12360950;28;20054;-44
2021/04/01 04:35:31;;;;;;;40.67;22.90;;;12.80;99.90;;;;;;12355286;28;20165;-42
2021/04/01 04:41:32;;;;;;;39.83;23.25;;;12.90;99.90;;;;;;12353594;28;20141;-42
2021/04/01 04:47:34;;;;;;;44.95;24.48;;;12.80;99.90;;;;;;12350500;28;20137;-42
2021/04/01 04:53:36;;;;;;;50.33;24.10;;;12.70;99.90;;;;;;12363877;28;20681;-42
2021/04/01 05:05:53;;;;;;;46.10;25.77;;;12.80;99.90;;;;;;12343031;28;20046;-42
2021/04/01 05:11:55;;;;;;;46.55;25.88;;;12.80;99.90;;;;;;12340545;28;21198;-42
2021/04/01 05:18:12;;;;;;;51.33;26.63;;;12.70;99.90;;;;;;12356555;28;20483;-42
2021/04/01 05:24:17;;;;;;;46.67;26.27;;;12.70;99.90;;;;;;12356535;28;20051;-42
2021/04/01 05:30:20;;;;;;;51.90;27.08;;;12.90;99.90;;;;;;12362187;28;20150;-42
2021/04/01 05:36:24;;;;;;;49.15;28.73;;;13.10;99.90;;;;;;12363353;28;20907;-43
2021/04/01 05:42:31;;;;;;;51.88;27.95;;;12.90;99.90;;;;;;12351761;28;20417;-42
2021/04/01 05:49:21;;;;;;;52.17;28.92;;;12.80;99.90;;;;;;12342122;28;20078;-43
2021/04/01 06:01:54;;;;;;;57.13;28.85;;;13.60;99.90;;;;;;12334428;28;20133;-42
2021/04/01 06:08:12;;;;;;;50.42;28.30;;;13.60;99.90;;;;;;12349971;28;20211;-44
2021/04/01 06:14:19;;;;;;;47.67;27.65;;;13.70;99.90;;;;;;12356112;28;20169;-42
2021/04/01 06:20:20;;;;;;;52.33;27.67;;;13.70;99.90;;;;;;12364256;28;20057;-47
2021/04/01 06:26:26;;;;;;;54.72;30.05;;;13.80;99.90;;;;;;12367744;28;20092;-42
2021/04/01 06:32:29;;;;;;;59.58;31.20;;;13.80;99.90;;;;;;12353706;28;20129;-42
2021/04/01 06:38:37;;;;;;;58.40;30.88;;;13.90;99.90;;;;;;12361717;28;20145;-42
2021/04/01 06:44:58;;;;;;;62.75;33.17;;;14.00;99.90;;;;;;12364827;28;20085;-43
2021/04/01 06:51:05;;;;;;;53.88;32.35;;;13.80;99.90;;;;;;12363446;28;20046;-43
2021/04/01 06:57:23;;;;;;;58.72;32.65;;;13.70;99.90;;;;;;12375791;28;20133;-43
2021/04/01 07:03:40;;;;;;;59.22;33.63;;;14.00;99.90;;;;;;12366940;28;20077;-42
2021/04/01 07:15:47;;;;;;;59.67;34.78;;;14.20;99.90;;;;;;12366430;28;20071;-43
2021/04/01 07:47:34;;;;;;;65.90;36.15;;;15.40;99.90;;;;;;12350417;28;20141;-42
2021/04/01 07:53:36;;;;;;;65.50;34.85;;;15.50;99.90;;;;;;12362295;28;20084;-42
2021/04/01 08:06:00;;;;;;;71.18;37.67;;;15.60;99.90;;;;;;12331184;28;20180;-42
2021/04/01 08:12:01;;;;;;;72.22;37.40;;;15.60;99.90;;;;;;12354821;28;20133;-45
2021/04/01 08:18:14;;;;;;;71.53;37.45;;;15.60;99.90;;;;;;12358570;28;20081;-42
2021/04/01 08:24:21;;;;;;;75.88;38.47;;;15.40;99.90;;;;;;12362855;28;20145;-42
2021/04/01 08:31:20;;;;;;;74.95;38.30;;;15.40;99.90;;;;;;12367571;28;20049;-42
2021/04/01 08:37:55;;;;;;;71.03;37.55;;;15.60;99.90;;;;;;12368740;28;20050;-42
2021/04/01 08:44:51;;;;;;;74.60;39.30;;;15.70;99.90;;;;;;12370748;28;20773;-42
2021/04/01 08:51:33;;;;;;;70.90;36.60;;;15.90;99.90;;;;;;12366622;28;20080;-45
2021/04/01 08:58:01;;;;;;;74.33;38.37;;;16.00;99.90;;;;;;12367242;28;20633;-42
2021/04/01 09:04:04;;;;;;;77.18;39.63;;;16.00;99.90;;;;;;12360369;28;20089;-42
2021/04/01 09:10:21;;;;;;;77.93;40.83;;;15.90;99.90;;;;;;12363056;28;20439;-43
2021/04/01 09:16:33;;;;;;;75.55;41.90;;;16.00;99.90;;;;;;12345920;28;20133;-42
2021/04/01 09:22:42;;;;;;;73.47;39.72;;;16.10;99.90;;;;;;12349388;28;20525;-43
2021/04/01 09:28:44;;;;;;;75.35;42.05;;;16.20;99.90;;;;;;12356166;28;20482;-43
2021/04/01 09:34:48;;;;;;;73.90;41.45;;;16.40;99.90;;;;;;12357076;28;20096;-42
2021/04/01 09:40:50;;;;;;;77.47;42.22;;;16.70;99.90;;;;;;12364644;28;20140;-42
2021/04/01 09:47:14;;;;;;;71.65;40.90;;;16.90;99.90;;;;;;12368119;28;20109;-42
2021/04/01 09:53:20;;;;;;;80.32;44.10;;;17.00;99.90;;;;;;12363578;28;20655;-42
2021/04/01 10:06:00;;;;;;;80.03;45.78;;;16.80;99.90;;;;;;12350241;28;20144;-44
2021/04/01 10:12:07;;;;;;;85.75;48.00;;;16.70;99.90;;;;;;12362136;28;20521;-43
2021/04/01 10:18:14;;;;;;;85.28;45.85;;;16.70;99.90;;;;;;12348530;28;20521;-42
2021/04/01 10:24:24;;;;;;;87.57;48.65;;;16.60;99.90;;;;;;12366988;28;20116;-42
2021/04/01 10:30:32;;;;;;;93.72;48.85;;;16.40;99.90;;;;;;12361766;28;20088;-42
2021/04/01 10:36:39;;;;;;;94.85;52.97;;;16.50;99.90;;;;;;12374701;28;20049;-43
2021/04/01 10:42:45;;;;;;;94.10;49.72;;;16.40;99.90;;;;;;12377914;28;20046;-42
2021/04/01 10:48:50;;;;;;;95.35;52.17;;;16.10;99.90;;;;;;12367946;28;20066;-42
2021/04/01 10:54:51;;;;;;;81.25;43.92;;;15.90;99.90;;;;;;12371946;28;20158;-44
2021/04/01 11:00:55;;;;;;;64.15;36.03;;;15.90;99.90;;;;;;12361473;28;20077;-44
2021/04/01 11:07:01;;;;;;;63.43;34.47;;;16.30;99.90;;;;;;12361214;28;20054;-44
2021/04/01 11:13:05;;;;;;;60.50;33.20;;;16.20;99.90;;;;;;12374170;28;20080;-44
2021/04/01 11:19:10;;;;;;;48.40;27.38;;;16.50;99.90;;;;;;12356069;28;20518;-42
2021/04/01 11:25:12;;;;;;;33.80;18.60;;;16.60;99.90;;;;;;12368928;28;20696;-43
2021/04/01 11:31:24;;;;;;;29.95;16.63;;;16.70;99.90;;;;;;12358917;28;20088;-42
2021/04/01 11:37:34;;;;;;;28.38;13.25;;;16.00;99.90;;;;;;12356606;28;20077;-42
2021/04/01 11:43:36;;;;;;;23.25;12.52;;;15.70;99.90;;;;;;12359181;28;20046;-42
2021/04/01 11:49:37;;;;;;;14.70;5.95;;;15.40;99.90;;;;;;12358828;28;20778;-42
2021/04/01 11:55:53;;;;;;;11.60;4.43;;;15.20;99.90;;;;;;12371964;28;20525;-43
2021/04/01 12:01:59;;;;;;;12.20;4.15;;;15.60;99.90;;;;;;12363846;28;20142;-42
2021/04/01 12:08:02;;;;;;;12.20;3.78;;;15.90;99.90;;;;;;12361500;28;20239;-43
2021/04/01 12:14:12;;;;;;;19.33;3.47;;;15.70;99.90;;;;;;12362376;28;20050;-41
2021/04/01 12:20:14;;;;;;;8.00;3.08;;;15.00;99.90;;;;;;12365007;28;20045;-42
2021/04/01 12:26:16;;;;;;;5.97;1.38;;;14.60;99.90;;;;;;12355322;28;20082;-42
2021/04/01 12:32:32;;;;;;;5.65;1.67;;;14.20;99.90;;;;;;12367682;28;20129;-42
2021/04/01 12:38:38;;;;;;;7.97;2.30;;;13.90;99.90;;;;;;12362734;28;20047;-42
2021/04/01 12:44:42;;;;;;;7.25;2.55;;;14.60;99.90;;;;;;12365432;28;20069;-42
2021/04/01 13:29:07;;;;;;;5.20;2.00;;;14.60;99.90;;;;;;12310242;28;20151;-43
2021/04/01 13:42:26;;;;;;;2.75;0.90;;;14.60;99.90;;;;;;12279759;28;20137;-42
2021/04/01 13:48:05;;;;;;;2.55;1.20;;;14.20;99.90;;;;;;12308634;28;20165;-42
2021/04/01 13:54:17;;;;;;;6.68;1.38;;;14.00;99.90;;;;;;12313355;28;20047;-42
2021/04/01 14:00:28;;;;;;;5.15;1.35;;;14.10;99.90;;;;;;12313654;28;20150;-42
2021/04/01 14:13:14;;;;;;;4.70;1.40;;;14.10;99.90;;;;;;12310939;28;20068;-42
2021/04/01 14:19:19;;;;;;;5.97;1.73;;;14.30;99.90;;;;;;12336500;28;20077;-42
2021/04/01 14:25:36;;;;;;;6.82;1.67;;;14.40;99.90;;;;;;12350336;28;20116;-44
2021/04/01 14:31:37;;;;;;;9.23;2.20;;;14.10;99.90;;;;;;12358788;28;20514;-42
2021/04/01 14:37:42;;;;;;;6.95;1.52;;;14.10;99.90;;;;;;12330292;28;20038;-42
2021/04/01 14:43:52;;;;;;;9.73;2.20;;;14.10;99.90;;;;;;12352863;28;20082;-42
2021/04/01 14:49:54;;;;;;;8.30;2.22;;;14.10;99.90;;;;;;12349123;28;20061;-42
2021/04/01 14:55:57;;;;;;;9.60;2.13;;;13.70;99.90;;;;;;12341681;28;20133;-43
2021/04/01 15:01:59;;;;;;;8.82;2.17;;;13.80;99.90;;;;;;12344383;28;20061;-42
2021/04/01 15:08:03;;;;;;;9.20;2.10;;;13.70;99.90;;;;;;12356325;28;20423;-42
2021/04/01 15:14:09;;;;;;;5.28;2.13;;;13.50;99.90;;;;;;12366389;28;20038;-42
2021/04/01 15:20:11;;;;;;;7.50;1.70;;;13.70;99.90;;;;;;12373108;28;20054;-43
2021/04/01 15:26:12;;;;;;;8.27;1.98;;;13.50;99.90;;;;;;12367586;28;20085;-42
2021/04/01 15:32:13;;;;;;;8.45;2.00;;;13.20;99.90;;;;;;12368226;28;20148;-42
2021/04/01 15:38:15;;;;;;;6.80;1.70;;;13.20;99.90;;;;;;12357831;28;20081;-43
2021/04/01 15:44:16;;;;;;;5.18;1.70;;;13.10;99.90;;;;;;12339008;28;20153;-42
2021/04/01 15:50:18;;;;;;;7.80;1.50;;;12.90;99.90;;;;;;12349202;28;20168;-42
2021/04/01 15:56:19;;;;;;;7.75;1.80;;;12.80;99.90;;;;;;12362445;28;20045;-41
2021/04/01 16:02:21;;;;;;;4.00;1.40;;;12.50;99.90;;;;;;12354131;28;20526;-42
2021/04/01 16:08:22;;;;;;;3.65;1.63;;;11.80;99.90;;;;;;12369110;28;20142;-41
2021/04/01 16:14:24;;;;;;;5.70;1.58;;;12.10;99.90;;;;;;12349422;28;20049;-42
2021/04/01 16:20:25;;;;;;;8.15;1.70;;;12.00;99.90;;;;;;12360938;28;20851;-42
2021/04/01 16:26:26;;;;;;;3.92;1.50;;;11.90;99.90;;;;;;12340177;28;20785;-42
2021/04/01 16:32:29;;;;;;;2.72;1.38;;;12.20;99.90;;;;;;12344537;28;20466;-43
2021/04/01 16:38:31;;;;;;;4.43;1.50;;;12.10;99.90;;;;;;12352813;28;20478;-43
2021/04/01 16:44:33;;;;;;;7.75;2.13;;;11.90;99.90;;;;;;12357703;28;20067;-44
2021/04/01 16:50:34;;;;;;;4.03;1.60;;;12.00;99.90;;;;;;12360078;28;20108;-43
2021/04/01 16:56:37;;;;;;;4.53;2.00;;;11.90;99.90;;;;;;12352568;28;20069;-42
2021/04/01 17:02:39;;;;;;;5.47;1.70;;;12.10;99.90;;;;;;12357275;28;20050;-43
2021/04/01 17:08:40;;;;;;;2.53;1.42;;;11.60;99.90;;;;;;12363263;28;20058;-42
2021/04/01 17:14:42;;;;;;;3.78;1.60;;;11.20;99.90;;;;;;12364582;28;20394;-42
2021/04/01 17:20:43;;;;;;;6.15;1.90;;;10.90;99.90;;;;;;12356494;28;21053;-42
2021/04/01 17:26:54;;;;;;;6.00;2.25;;;10.40;99.90;;;;;;12367280;28;20049;-41
2021/04/01 17:32:55;;;;;;;3.45;1.88;;;10.10;99.90;;;;;;12361488;28;20069;-41
2021/04/01 17:38:57;;;;;;;4.38;1.98;;;9.70;99.90;;;;;;12365648;28;20069;-41
2021/04/01 17:44:59;;;;;;;5.50;2.00;;;9.40;99.90;;;;;;12335217;28;20082;-41
2021/04/01 17:51:01;;;;;;;6.18;2.60;;;9.30;99.90;;;;;;12365451;28;20074;-41
2021/04/01 17:57:03;;;;;;;4.03;2.40;;;9.10;99.90;;;;;;12365539;28;20450;-41
2021/04/01 18:28:07;;;;;;;5.57;3.30;;;8.60;99.90;;;;;;12352606;28;20453;-41
2021/04/01 18:40:34;;;;;;;;;;;8.40;99.90;;;;;;12356139;28;20129;-42
2021/04/01 18:46:47;;;;;;;6.68;3.60;;;8.40;99.90;;;;;;12363527;28;20232;-42
2021/04/01 18:52:50;;;;;;;5.95;3.47;;;8.30;99.90;;;;;;12362121;28;20168;-42
2021/04/01 18:59:06;;;;;;;7.00;3.80;;;8.30;99.90;;;;;;12348218;28;20463;-41
2021/04/01 19:23:52;;;;;;;9.70;5.40;;;8.30;99.90;;;;;;12357362;28;20145;-45
2021/04/01 19:29:54;;;;;;;7.18;4.32;;;8.30;99.90;;;;;;12361810;28;20089;-43
2021/04/01 19:35:56;;;;;;;10.57;4.75;;;8.50;99.90;;;;;;12344754;28;20060;-41
2021/04/01 19:42:01;;;;;;;10.38;5.20;;;8.50;99.90;;;;;;12335440;28;20046;-42
2021/04/01 19:48:05;;;;;;;6.88;4.60;;;8.50;99.90;;;;;;12348206;28;20065;-45
2021/04/01 19:54:07;;;;;;;;;;;8.50;99.90;;;;;;12346335;28;20042;-43
2021/04/01 20:00:19;;;;;;;8.18;3.70;;;8.50;99.90;;;;;;12351807;28;20719;-42
2021/04/01 20:06:20;;;;;;;6.68;3.45;;;8.50;99.90;;;;;;12357255;28;20169;-42
2021/04/01 20:12:23;;;;;;;6.13;3.38;;;8.50;99.90;;;;;;12352489;28;20038;-43
2021/04/01 20:18:26;;;;;;;8.73;4.10;;;8.40;99.90;;;;;;12348050;28;20093;-42
2021/04/01 20:24:28;;;;;;;8.45;3.28;;;8.40;99.90;;;;;;12349087;28;20046;-42
2021/04/01 20:30:29;;;;;;;5.85;3.10;;;8.40;99.90;;;;;;12343711;28;20058;-42
2021/04/01 20:36:32;;;;;;;8.82;3.10;;;8.30;99.90;;;;;;12333779;28;20056;-42
2021/04/01 20:42:33;;;;;;;7.97;3.20;;;8.10;99.90;;;;;;12349083;28;20089;-42
2021/04/01 20:48:35;;;;;;;6.95;3.20;;;8.00;99.90;;;;;;12350055;28;20070;-41
2021/04/01 20:54:37;;;;;;;9.70;3.60;;;8.00;99.90;;;;;;12347573;28;20052;-42
2021/04/01 21:00:41;;;;;;;10.30;3.38;;;8.00;99.90;;;;;;12343264;28;20507;-43
2021/04/01 21:06:42;;;;;;;7.10;3.07;;;8.00;99.90;;;;;;12350497;28;20137;-41
2021/04/01 21:12:45;;;;;;;8.68;3.60;;;8.00;99.90;;;;;;12349986;28;20051;-44
2021/04/01 21:18:46;;;;;;;13.23;4.00;;;8.00;99.90;;;;;;12348359;28;20582;-41
2021/04/01 21:24:47;;;;;;;10.88;3.83;;;7.90;99.90;;;;;;12352991;28;20209;-41
2021/04/01 21:30:55;;;;;;;8.63;3.47;;;7.90;99.90;;;;;;12344098;28;20060;-41
2021/04/01 21:36:56;;;;;;;14.05;3.90;;;7.70;99.90;;;;;;12349377;28;20171;-41
2021/04/01 21:42:58;;;;;;;11.68;3.92;;;7.60;99.90;;;;;;12324216;28;20054;-41
2021/04/01 21:49:00;;;;;;;10.88;3.55;;;7.50;99.90;;;;;;12339987;28;20065;-41
2021/04/01 21:55:03;;;;;;;8.95;3.30;;;7.30;99.90;;;;;;12346075;28;20054;-42
2021/04/01 22:01:04;;;;;;;11.25;3.67;;;7.40;99.90;;;;;;12348614;28;20050;-42
2021/04/01 22:07:05;;;;;;;16.73;3.60;;;7.20;99.90;;;;;;12344190;28;20080;-41
2021/04/01 22:13:09;;;;;;;12.75;2.95;;;7.20;99.90;;;;;;12346202;28;20526;-43
2021/04/01 22:19:10;;;;;;;9.23;3.20;;;7.10;99.90;;;;;;12354706;28;20470;-41
2021/04/01 22:25:21;;;;;;;9.68;3.72;;;7.20;99.90;;;;;;12361609;28;20046;-42
2021/04/01 22:31:22;;;;;;;9.52;3.28;;;7.20;99.90;;;;;;12364978;28;20154;-41
2021/04/01 22:37:24;;;;;;;11.75;4.03;;;7.30;99.90;;;;;;12341045;28;20129;-42
2021/04/01 22:43:25;;;;;;;12.95;4.20;;;7.20;99.90;;;;;;12363184;28;20054;-41
2021/04/01 22:49:26;;;;;;;11.82;3.97;;;7.20;99.90;;;;;;12362577;28;20141;-41
2021/04/01 22:55:28;;;;;;;10.50;3.80;;;7.20;99.90;;;;;;12361880;28;20049;-41
2021/04/01 23:01:30;;;;;;;12.95;4.22;;;7.20;99.90;;;;;;12359340;28;20065;-42
2021/04/01 23:07:32;;;;;;;12.52;3.53;;;7.30;99.90;;;;;;12358403;28;20395;-41
2021/04/01 23:13:33;;;;;;;16.60;3.90;;;7.30;99.90;;;;;;12361020;28;20050;-41
2021/04/01 23:19:35;;;;;;;15.50;4.15;;;7.30;99.90;;;;;;12367654;28;20120;-42
2021/04/01 23:25:37;;;;;;;15.02;4.35;;;7.20;99.90;;;;;;12353487;28;20061;-41
2021/04/01 23:31:38;;;;;;;10.50;4.15;;;7.20;99.90;;;;;;12358795;28;20174;-41
2021/04/01 23:37:40;;;;;;;14.02;4.28;;;7.10;99.90;;;;;;12355636;28;20180;-41
2021/04/01 23:43:42;;;;;;;11.13;4.18;;;7.00;99.90;;;;;;12332498;28;20134;-41
2021/04/01 23:49:43;;;;;;;13.05;4.75;;;7.00;99.90;;;;;;12348433;28;20050;-40
2021/04/01 23:55:46;;;;;;;12.80;5.85;;;7.10;99.90;;;;;;12345580;28;20050;-42
